createdAt,value
2017-03-04T00:00:00.909Z,0
2017-03-04T00:01:11.150Z,0
2017-03-04T00:02:21.927Z,0
2017-03-04T00:03:32.276Z,0
2017-03-04T00:04:42.637Z,0
2017-03-04T00:05:53.389Z,0
2017-03-04T00:07:04.022Z,0
2017-03-04T00:08:13.609Z,0
2017-03-04T00:09:24.358Z,0
2017-03-04T00:10:34.313Z,0
2017-03-04T00:11:45.060Z,0
2017-03-04T00:12:56.048Z,0
2017-03-04T00:14:06.821Z,0
2017-03-04T00:15:17.187Z,0
2017-03-04T00:16:27.133Z,0
2017-03-04T00:17:37.523Z,0
2017-03-04T00:18:48.526Z,0
2017-03-04T00:19:59.267Z,0
2017-03-04T00:21:09.639Z,0
2017-03-04T00:22:20.017Z,0
2017-03-04T00:23:30.755Z,0
2017-03-04T00:24:41.802Z,0
2017-03-04T00:25:52.605Z,0
2017-03-04T00:27:03.367Z,0
2017-03-04T00:28:14.113Z,0
2017-03-04T00:29:24.468Z,0
2017-03-04T00:30:35.472Z,0
2017-03-04T00:31:45.034Z,0
2017-03-04T00:32:55.812Z,0
2017-03-04T00:34:06.200Z,0
2017-03-04T00:35:16.967Z,0
2017-03-04T00:36:27.585Z,0
2017-03-04T00:37:37.555Z,0
2017-03-04T00:38:47.585Z,0
2017-03-04T00:39:57.956Z,0
2017-03-04T00:41:08.711Z,0
2017-03-04T00:42:19.728Z,0
2017-03-04T00:43:30.474Z,0
2017-03-04T00:44:40.835Z,0
2017-03-04T00:45:51.613Z,0
2017-03-04T00:47:01.169Z,0
2017-03-04T00:48:12.231Z,0
2017-03-04T00:49:22.585Z,0
2017-03-04T00:50:32.548Z,0
2017-03-04T00:51:42.910Z,0
2017-03-04T00:52:53.298Z,0
2017-03-04T00:54:03.665Z,0
2017-03-04T00:55:14.016Z,0
2017-03-04T00:56:24.791Z,0
2017-03-04T00:57:35.540Z,0
2017-03-04T00:58:45.752Z,0
2017-03-04T00:59:56.336Z,0
2017-03-04T01:01:06.315Z,0
2017-03-04T01:02:16.695Z,0
2017-03-04T01:03:27.440Z,0
2017-03-04T01:04:38.195Z,0
2017-03-04T01:05:48.394Z,0
2017-03-04T01:06:59.159Z,0
2017-03-04T01:08:08.739Z,0
2017-03-04T01:09:19.122Z,0
2017-03-04T01:10:29.476Z,0
2017-03-04T01:11:40.551Z,0
2017-03-04T01:12:50.919Z,0
2017-03-04T01:14:01.297Z,0
2017-03-04T01:15:11.679Z,0
2017-03-04T01:16:22.056Z,0
2017-03-04T01:17:32.669Z,0
2017-03-04T01:18:43.050Z,0
2017-03-04T01:19:53.796Z,0
2017-03-04T01:21:04.149Z,0
2017-03-04T01:22:14.496Z,0
2017-03-04T01:23:24.691Z,0
2017-03-04T01:24:35.057Z,0
2017-03-04T01:25:45.815Z,0
2017-03-04T01:26:56.573Z,0
2017-03-04T01:28:06.935Z,0
2017-03-04T01:29:17.134Z,0
2017-03-04T01:30:27.508Z,0
2017-03-04T01:31:37.850Z,0
2017-03-04T01:32:48.608Z,0
2017-03-04T01:33:59.357Z,0
2017-03-04T01:35:10.362Z,0
2017-03-04T01:36:21.113Z,0
2017-03-04T01:37:31.479Z,0
2017-03-04T01:38:42.215Z,0
2017-03-04T01:39:53.002Z,0
2017-03-04T01:41:03.984Z,0
2017-03-04T01:42:14.746Z,0
2017-03-04T01:43:25.094Z,0
2017-03-04T01:44:35.850Z,0
2017-03-04T01:45:46.211Z,0
2017-03-04T01:46:56.489Z,0
2017-03-04T01:48:07.267Z,0
2017-03-04T01:49:17.613Z,0
2017-03-04T01:50:27.966Z,0
2017-03-04T01:51:38.336Z,0
2017-03-04T01:52:49.334Z,0
2017-03-04T01:53:59.674Z,0
2017-03-04T01:55:10.128Z,0
2017-03-04T01:56:20.886Z,0
2017-03-04T01:57:31.623Z,0
2017-03-04T01:58:42.236Z,0
2017-03-04T01:59:52.607Z,0
2017-03-04T02:01:03.356Z,0
2017-03-04T02:02:13.299Z,0
2017-03-04T02:03:22.969Z,0
2017-03-04T02:04:34.006Z,0
2017-03-04T02:05:44.379Z,0
2017-03-04T02:06:54.371Z,0
2017-03-04T02:08:05.150Z,0
2017-03-04T02:09:15.103Z,0
2017-03-04T02:10:25.311Z,0
2017-03-04T02:11:35.247Z,0
2017-03-04T02:12:45.999Z,0
2017-03-04T02:13:56.754Z,0
2017-03-04T02:15:07.115Z,0
2017-03-04T02:16:18.159Z,0
2017-03-04T02:17:28.572Z,0
2017-03-04T02:18:39.321Z,0
2017-03-04T02:19:49.670Z,0
2017-03-04T02:21:00.416Z,0
2017-03-04T02:22:11.020Z,0
2017-03-04T02:23:21.772Z,0
2017-03-04T02:24:32.120Z,0
2017-03-04T02:25:42.114Z,0
2017-03-04T02:26:52.978Z,0
2017-03-04T02:28:04.059Z,0
2017-03-04T02:29:14.838Z,0
2017-03-04T02:30:25.186Z,0
2017-03-04T02:31:35.529Z,0
2017-03-04T02:32:46.299Z,0
2017-03-04T02:33:56.895Z,0
2017-03-04T02:35:07.247Z,0
2017-03-04T02:36:17.195Z,0
2017-03-04T02:37:26.780Z,0
2017-03-04T02:38:36.343Z,0
2017-03-04T02:39:47.343Z,0
2017-03-04T02:40:57.720Z,0
2017-03-04T02:42:08.114Z,0
2017-03-04T02:43:18.872Z,0
2017-03-04T02:44:29.240Z,0
2017-03-04T02:45:39.881Z,0
2017-03-04T02:46:50.227Z,0
2017-03-04T02:48:00.984Z,0
2017-03-04T02:49:11.726Z,0
2017-03-04T02:50:22.073Z,0
2017-03-04T02:51:32.313Z,0
2017-03-04T02:52:42.284Z,0
2017-03-04T02:53:52.640Z,0
2017-03-04T02:55:03.448Z,0
2017-03-04T02:56:13.804Z,0
2017-03-04T02:57:24.438Z,0
2017-03-04T02:58:34.790Z,0
2017-03-04T02:59:45.148Z,0
2017-03-04T03:00:55.919Z,0
2017-03-04T03:02:06.697Z,0
2017-03-04T03:03:16.932Z,0
2017-03-04T03:04:27.547Z,0
2017-03-04T03:05:37.894Z,0
2017-03-04T03:06:48.304Z,0
2017-03-04T03:07:58.275Z,0
2017-03-04T03:09:08.899Z,0
2017-03-04T03:10:19.283Z,0
2017-03-04T03:11:29.625Z,0
2017-03-04T03:12:39.628Z,0
2017-03-04T03:13:50.390Z,0
2017-03-04T03:15:00.992Z,0
2017-03-04T03:16:11.759Z,0
2017-03-04T03:17:22.506Z,0
2017-03-04T03:18:32.899Z,0
2017-03-04T03:19:43.257Z,0
2017-03-04T03:20:54.262Z,0
2017-03-04T03:22:04.614Z,0
2017-03-04T03:23:15.385Z,0
2017-03-04T03:24:25.734Z,0
2017-03-04T03:25:35.299Z,0
2017-03-04T03:26:45.907Z,0
2017-03-04T03:27:56.275Z,0
2017-03-04T03:29:07.021Z,0
2017-03-04T03:30:17.379Z,0
2017-03-04T03:31:28.115Z,0
2017-03-04T03:32:39.152Z,0
2017-03-04T03:33:50.012Z,0
2017-03-04T03:35:00.368Z,0
2017-03-04T03:36:10.320Z,0
2017-03-04T03:37:21.106Z,0
2017-03-04T03:38:31.315Z,0
2017-03-04T03:39:42.074Z,0
2017-03-04T03:40:52.442Z,0
2017-03-04T03:42:03.201Z,0
2017-03-04T03:43:13.987Z,0
2017-03-04T03:44:24.591Z,0
2017-03-04T03:45:35.375Z,0
2017-03-04T03:46:45.709Z,0
2017-03-04T03:47:56.083Z,0
2017-03-04T03:49:06.885Z,0
2017-03-04T03:50:17.514Z,0
2017-03-04T03:51:27.878Z,0
2017-03-04T03:52:38.240Z,0
2017-03-04T03:53:48.189Z,0
2017-03-04T03:54:58.963Z,0
2017-03-04T03:56:09.632Z,0
2017-03-04T03:57:20.406Z,0
2017-03-04T03:58:31.149Z,0
2017-03-04T03:59:41.902Z,0
2017-03-04T04:00:51.870Z,0
2017-03-04T04:02:02.490Z,0
2017-03-04T04:03:13.230Z,0
2017-03-04T04:04:23.600Z,0
2017-03-04T04:05:33.956Z,0
2017-03-04T04:06:44.309Z,0
2017-03-04T04:07:54.586Z,0
2017-03-04T04:09:05.373Z,0
2017-03-04T04:10:15.306Z,0
2017-03-04T04:11:26.058Z,0
2017-03-04T04:12:36.813Z,0
2017-03-04T04:13:47.844Z,0
2017-03-04T04:14:58.592Z,0
2017-03-04T04:16:09.331Z,0
2017-03-04T04:17:19.694Z,0
2017-03-04T04:18:30.051Z,0
2017-03-04T04:19:41.033Z,0
2017-03-04T04:20:51.789Z,0
2017-03-04T04:22:02.272Z,0
2017-03-04T04:23:13.031Z,0
2017-03-04T04:24:23.884Z,0
2017-03-04T04:25:34.880Z,0
2017-03-04T04:26:45.616Z,0
2017-03-04T04:27:55.965Z,0
2017-03-04T04:29:06.707Z,0
2017-03-04T04:30:17.053Z,0
2017-03-04T04:31:27.322Z,0
2017-03-04T04:32:38.054Z,0
2017-03-04T04:33:47.631Z,0
2017-03-04T04:34:57.619Z,0
2017-03-04T04:36:07.984Z,0
2017-03-04T04:37:18.211Z,0
2017-03-04T04:38:28.949Z,0
2017-03-04T04:39:39.729Z,0
2017-03-04T04:40:50.464Z,0
2017-03-04T04:42:01.197Z,0
2017-03-04T04:43:11.417Z,0
2017-03-04T04:44:21.762Z,0
2017-03-04T04:45:32.121Z,0
2017-03-04T04:46:42.880Z,0
2017-03-04T04:47:53.249Z,0
2017-03-04T04:49:03.478Z,0
2017-03-04T04:50:14.227Z,0
2017-03-04T04:51:24.985Z,0
2017-03-04T04:52:35.724Z,0
2017-03-04T04:53:46.464Z,0
2017-03-04T04:54:56.258Z,0
2017-03-04T04:56:06.995Z,0
2017-03-04T04:57:17.343Z,0
2017-03-04T04:58:27.296Z,0
2017-03-04T04:59:38.038Z,0
2017-03-04T05:00:49.039Z,0
2017-03-04T05:01:59.775Z,0
2017-03-04T05:03:10.115Z,0
2017-03-04T05:04:19.678Z,0
2017-03-04T05:05:30.029Z,0
2017-03-04T05:06:40.623Z,0
2017-03-04T05:07:50.978Z,0
2017-03-04T05:09:01.321Z,0
2017-03-04T05:10:11.685Z,0
2017-03-04T05:11:22.431Z,0
2017-03-04T05:12:32.633Z,0
2017-03-04T05:13:43.388Z,0
2017-03-04T05:14:54.149Z,0
2017-03-04T05:16:04.882Z,0
2017-03-04T05:17:14.820Z,0
2017-03-04T05:18:25.478Z,0
2017-03-04T05:19:35.836Z,0
2017-03-04T05:20:46.189Z,0
2017-03-04T05:21:55.759Z,0
2017-03-04T05:23:06.505Z,0
2017-03-04T05:24:17.092Z,0
2017-03-04T05:25:27.444Z,0
2017-03-04T05:26:37.004Z,0
2017-03-04T05:27:46.946Z,0
2017-03-04T05:28:57.705Z,0
2017-03-04T05:30:07.538Z,0
2017-03-04T05:31:17.912Z,0
2017-03-04T05:32:28.255Z,0
2017-03-04T05:33:37.817Z,0
2017-03-04T05:34:48.562Z,0
2017-03-04T05:35:59.189Z,0
2017-03-04T05:37:09.155Z,0
2017-03-04T05:38:19.893Z,0
2017-03-04T05:39:30.248Z,0
2017-03-04T05:40:41.030Z,0
2017-03-04T05:41:51.624Z,0
2017-03-04T05:43:02.115Z,0
2017-03-04T05:44:12.867Z,0
2017-03-04T05:45:23.218Z,0
2017-03-04T05:46:33.989Z,0
2017-03-04T05:47:44.188Z,0
2017-03-04T05:48:54.533Z,0
2017-03-04T05:50:04.898Z,0
2017-03-04T05:51:15.289Z,0
2017-03-04T05:52:25.637Z,0
2017-03-04T05:53:36.290Z,0
2017-03-04T05:54:46.661Z,0
2017-03-04T05:55:57.026Z,0
2017-03-04T05:57:07.020Z,0
2017-03-04T05:58:16.964Z,0
2017-03-04T05:59:28.009Z,0
2017-03-04T06:00:37.967Z,0
2017-03-04T06:01:48.325Z,4
2017-03-04T06:02:59.109Z,4
2017-03-04T06:04:09.682Z,4
2017-03-04T06:05:20.738Z,4
2017-03-04T06:06:31.477Z,0
2017-03-04T06:07:41.852Z,0
2017-03-04T06:08:52.598Z,0
2017-03-04T06:10:02.566Z,4
2017-03-04T06:11:13.609Z,4
2017-03-04T06:12:24.351Z,4
2017-03-04T06:13:35.097Z,4
2017-03-04T06:14:45.852Z,4
2017-03-04T06:15:56.220Z,0
2017-03-04T06:17:07.215Z,4
2017-03-04T06:18:17.599Z,4
2017-03-04T06:19:27.954Z,4
2017-03-04T06:20:38.306Z,4
2017-03-04T06:21:48.668Z,8
2017-03-04T06:22:59.276Z,4
2017-03-04T06:24:10.031Z,4
2017-03-04T06:25:20.034Z,4
2017-03-04T06:26:30.402Z,8
2017-03-04T06:27:40.412Z,8
2017-03-04T06:28:51.411Z,8
2017-03-04T06:30:02.185Z,4
2017-03-04T06:31:12.604Z,8
2017-03-04T06:32:23.378Z,8
2017-03-04T06:33:33.308Z,8
2017-03-04T06:34:44.147Z,8
2017-03-04T06:35:54.092Z,8
2017-03-04T06:37:04.067Z,8
2017-03-04T06:38:14.822Z,8
2017-03-04T06:39:25.584Z,12
2017-03-04T06:40:36.233Z,8
2017-03-04T06:41:46.206Z,8
2017-03-04T06:42:55.789Z,12
2017-03-04T06:44:06.136Z,12
2017-03-04T06:45:16.111Z,8
2017-03-04T06:46:26.764Z,12
2017-03-04T06:47:37.138Z,12
2017-03-04T06:48:47.497Z,12
2017-03-04T06:49:57.858Z,12
2017-03-04T06:51:08.611Z,12
2017-03-04T06:52:19.611Z,16
2017-03-04T06:53:30.374Z,12
2017-03-04T06:54:40.755Z,16
2017-03-04T06:55:51.104Z,16
2017-03-04T06:57:01.833Z,12
2017-03-04T06:58:12.851Z,16
2017-03-04T06:59:23.599Z,16
2017-03-04T07:00:33.564Z,20
2017-03-04T07:01:43.935Z,16
2017-03-04T07:02:54.679Z,20
2017-03-04T07:04:05.723Z,20
2017-03-04T07:05:15.670Z,16
2017-03-04T07:06:26.015Z,20
2017-03-04T07:07:36.390Z,20
2017-03-04T07:08:46.764Z,20
2017-03-04T07:09:57.033Z,24
2017-03-04T07:11:07.029Z,20
2017-03-04T07:12:17.401Z,20
2017-03-04T07:13:27.342Z,20
2017-03-04T07:14:38.124Z,24
2017-03-04T07:15:49.184Z,20
2017-03-04T07:16:59.524Z,24
2017-03-04T07:18:10.281Z,24
2017-03-04T07:19:20.646Z,20
2017-03-04T07:20:31.404Z,24
2017-03-04T07:21:42.066Z,24
2017-03-04T07:22:52.422Z,24
2017-03-04T07:24:03.174Z,28
2017-03-04T07:25:13.161Z,28
2017-03-04T07:26:23.897Z,32
2017-03-04T07:27:35.139Z,32
2017-03-04T07:28:45.507Z,28
2017-03-04T07:29:56.252Z,32
2017-03-04T07:31:06.217Z,32
2017-03-04T07:32:16.581Z,32
2017-03-04T07:33:27.180Z,32
2017-03-04T07:34:37.558Z,32
2017-03-04T07:35:47.903Z,32
2017-03-04T07:36:58.252Z,36
2017-03-04T07:38:08.611Z,36
2017-03-04T07:39:19.638Z,32
2017-03-04T07:40:30.022Z,32
2017-03-04T07:41:39.990Z,32
2017-03-04T07:42:50.755Z,32
2017-03-04T07:44:01.146Z,32
2017-03-04T07:45:11.750Z,36
2017-03-04T07:46:22.124Z,36
2017-03-04T07:47:32.489Z,32
2017-03-04T07:48:42.847Z,36
2017-03-04T07:49:53.225Z,36
2017-03-04T07:51:03.881Z,36
2017-03-04T07:52:14.236Z,40
2017-03-04T07:53:24.277Z,40
2017-03-04T07:54:35.045Z,40
2017-03-04T07:55:45.400Z,40
2017-03-04T07:56:56.004Z,40
2017-03-04T07:58:06.759Z,40
2017-03-04T07:59:16.770Z,40
2017-03-04T08:00:26.763Z,40
2017-03-04T08:01:37.525Z,40
2017-03-04T08:02:48.123Z,44
2017-03-04T08:03:58.508Z,44
2017-03-04T08:05:09.270Z,48
2017-03-04T08:06:19.645Z,44
2017-03-04T08:07:30.412Z,48
2017-03-04T08:08:41.471Z,44
2017-03-04T08:09:52.242Z,44
2017-03-04T08:11:02.978Z,48
2017-03-04T08:12:13.736Z,48
2017-03-04T08:13:24.498Z,48
2017-03-04T08:14:35.099Z,48
2017-03-04T08:15:45.855Z,48
2017-03-04T08:16:56.594Z,48
2017-03-04T08:18:07.349Z,52
2017-03-04T08:19:18.127Z,52
2017-03-04T08:20:29.171Z,52
2017-03-04T08:21:39.906Z,52
2017-03-04T08:22:50.262Z,52
2017-03-04T08:24:00.239Z,56
2017-03-04T08:25:10.191Z,52
2017-03-04T08:26:21.212Z,52
2017-03-04T08:27:31.161Z,52
2017-03-04T08:28:41.913Z,52
2017-03-04T08:29:52.254Z,52
2017-03-04T08:31:02.233Z,52
2017-03-04T08:32:13.247Z,56
2017-03-04T08:33:24.018Z,56
2017-03-04T08:34:34.773Z,56
2017-03-04T08:35:45.189Z,52
2017-03-04T08:36:55.555Z,56
2017-03-04T08:38:05.858Z,52
2017-03-04T08:39:16.249Z,56
2017-03-04T08:40:27.019Z,52
2017-03-04T08:41:37.475Z,52
2017-03-04T08:42:47.429Z,56
2017-03-04T08:43:58.684Z,56
2017-03-04T08:45:09.048Z,56
2017-03-04T08:46:19.829Z,56
2017-03-04T08:47:30.605Z,56
2017-03-04T08:48:40.969Z,60
2017-03-04T08:49:51.964Z,60
2017-03-04T08:51:02.328Z,60
2017-03-04T08:52:12.687Z,56
2017-03-04T08:53:23.041Z,60
2017-03-04T08:54:33.798Z,64
2017-03-04T08:55:44.450Z,68
2017-03-04T08:56:55.215Z,68
2017-03-04T08:58:05.190Z,64
2017-03-04T08:59:15.180Z,64
2017-03-04T09:00:25.551Z,64
2017-03-04T09:01:35.753Z,68
2017-03-04T09:02:46.122Z,64
2017-03-04T09:03:56.493Z,64
2017-03-04T09:05:07.302Z,68
2017-03-04T09:06:17.757Z,64
2017-03-04T09:07:28.805Z,64
2017-03-04T09:08:38.777Z,68
2017-03-04T09:09:48.736Z,68
2017-03-04T09:10:59.490Z,68
2017-03-04T09:12:09.887Z,68
2017-03-04T09:13:20.614Z,64
2017-03-04T09:14:30.984Z,68
2017-03-04T09:15:41.337Z,64
2017-03-04T09:16:52.076Z,64
2017-03-04T09:18:02.848Z,64
2017-03-04T09:19:13.093Z,64
2017-03-04T09:20:23.087Z,64
2017-03-04T09:21:33.817Z,68
2017-03-04T09:22:44.206Z,68
2017-03-04T09:23:54.583Z,72
2017-03-04T09:25:05.248Z,72
2017-03-04T09:26:15.241Z,76
2017-03-04T09:27:26.016Z,76
2017-03-04T09:28:36.361Z,72
2017-03-04T09:29:46.696Z,68
2017-03-04T09:30:57.295Z,72
2017-03-04T09:32:07.280Z,76
2017-03-04T09:33:17.635Z,72
2017-03-04T09:34:28.384Z,72
2017-03-04T09:35:38.759Z,68
2017-03-04T09:36:49.024Z,72
2017-03-04T09:37:59.408Z,72
2017-03-04T09:39:09.779Z,68
2017-03-04T09:40:20.537Z,72
2017-03-04T09:41:31.315Z,72
2017-03-04T09:42:41.971Z,72
2017-03-04T09:43:52.323Z,76
2017-03-04T09:45:02.284Z,72
2017-03-04T09:46:13.059Z,72
2017-03-04T09:47:23.807Z,72
2017-03-04T09:48:34.474Z,72
2017-03-04T09:49:44.847Z,72
2017-03-04T09:50:55.588Z,68
2017-03-04T09:52:05.929Z,68
2017-03-04T09:53:16.278Z,72
2017-03-04T09:54:26.147Z,80
2017-03-04T09:55:36.890Z,72
2017-03-04T09:56:47.651Z,64
2017-03-04T09:57:58.431Z,72
2017-03-04T09:59:08.435Z,72
2017-03-04T10:00:19.108Z,76
2017-03-04T10:01:29.875Z,76
2017-03-04T10:02:40.249Z,68
2017-03-04T10:03:51.027Z,76
2017-03-04T10:05:01.403Z,76
2017-03-04T10:06:12.038Z,76
2017-03-04T10:07:22.054Z,76
2017-03-04T10:08:32.428Z,76
2017-03-04T10:09:42.374Z,72
2017-03-04T10:10:52.761Z,76
2017-03-04T10:12:03.808Z,76
2017-03-04T10:13:13.759Z,76
2017-03-04T10:14:24.521Z,72
2017-03-04T10:15:33.722Z,76
2017-03-04T10:16:44.087Z,76
2017-03-04T10:17:54.712Z,72
2017-03-04T10:19:05.123Z,72
2017-03-04T10:20:15.496Z,80
2017-03-04T10:21:25.900Z,72
2017-03-04T10:22:36.262Z,72
2017-03-04T10:23:47.324Z,80
2017-03-04T10:24:58.218Z,80
2017-03-04T10:26:08.579Z,80
2017-03-04T10:27:18.154Z,80
2017-03-04T10:28:28.528Z,76
2017-03-04T10:29:39.187Z,72
2017-03-04T10:30:49.937Z,80
2017-03-04T10:31:59.913Z,76
2017-03-04T10:33:10.659Z,76
2017-03-04T10:34:21.443Z,76
2017-03-04T10:35:32.045Z,76
2017-03-04T10:36:42.008Z,80
2017-03-04T10:37:52.787Z,76
2017-03-04T10:39:03.160Z,80
2017-03-04T10:40:13.513Z,76
2017-03-04T10:41:24.128Z,76
2017-03-04T10:42:34.886Z,72
2017-03-04T10:43:45.656Z,72
2017-03-04T10:44:56.022Z,68
2017-03-04T10:46:06.788Z,68
2017-03-04T10:47:17.456Z,68
2017-03-04T10:48:27.024Z,68
2017-03-04T10:49:37.385Z,68
2017-03-04T10:50:47.764Z,68
2017-03-04T10:51:58.522Z,72
2017-03-04T10:53:09.552Z,72
2017-03-04T10:54:20.350Z,72
2017-03-04T10:55:30.726Z,68
2017-03-04T10:56:40.691Z,72
2017-03-04T10:57:50.282Z,72
2017-03-04T10:59:00.911Z,72
2017-03-04T11:00:11.287Z,68
2017-03-04T11:01:21.682Z,68
2017-03-04T11:02:32.035Z,68
2017-03-04T11:03:42.403Z,68
2017-03-04T11:04:53.065Z,72
2017-03-04T11:06:03.033Z,68
2017-03-04T11:07:13.394Z,68
2017-03-04T11:08:24.157Z,68
2017-03-04T11:09:34.919Z,68
2017-03-04T11:10:45.539Z,72
2017-03-04T11:11:55.919Z,72
2017-03-04T11:13:06.262Z,72
2017-03-04T11:14:16.645Z,68
2017-03-04T11:15:26.983Z,68
2017-03-04T11:16:38.039Z,68
2017-03-04T11:17:48.393Z,56
2017-03-04T11:18:58.754Z,60
2017-03-04T11:20:08.982Z,68
2017-03-04T11:21:19.319Z,68
2017-03-04T11:22:29.544Z,64
2017-03-04T11:23:39.900Z,68
2017-03-04T11:24:50.674Z,64
2017-03-04T11:26:01.056Z,64
2017-03-04T11:27:11.843Z,64
2017-03-04T11:28:22.886Z,60
2017-03-04T11:29:32.847Z,72
2017-03-04T11:30:43.718Z,68
2017-03-04T11:31:54.089Z,68
2017-03-04T11:33:04.431Z,60
2017-03-04T11:34:15.023Z,60
2017-03-04T11:35:25.769Z,60
2017-03-04T11:36:36.138Z,60
2017-03-04T11:37:46.492Z,60
2017-03-04T11:38:57.299Z,68
2017-03-04T11:40:07.949Z,68
2017-03-04T11:41:18.306Z,64
2017-03-04T11:42:29.081Z,64
2017-03-04T11:43:39.452Z,64
2017-03-04T11:44:50.198Z,68
2017-03-04T11:46:00.460Z,68
2017-03-04T11:47:11.219Z,72
2017-03-04T11:48:21.602Z,68
2017-03-04T11:49:32.362Z,68
2017-03-04T11:50:43.158Z,68
2017-03-04T11:51:53.766Z,68
2017-03-04T11:53:03.740Z,68
2017-03-04T11:54:13.708Z,72
2017-03-04T11:55:24.472Z,68
2017-03-04T11:56:35.256Z,64
2017-03-04T11:57:45.874Z,68
2017-03-04T11:58:56.233Z,68
2017-03-04T12:00:07.009Z,68
2017-03-04T12:01:17.766Z,68
2017-03-04T12:02:27.725Z,64
2017-03-04T12:03:38.346Z,64
2017-03-04T12:04:48.718Z,64
2017-03-04T12:05:59.483Z,64
2017-03-04T12:07:09.848Z,68
2017-03-04T12:08:20.264Z,64
2017-03-04T12:09:30.531Z,64
2017-03-04T12:10:41.321Z,60
2017-03-04T12:11:50.904Z,60
2017-03-04T12:13:01.658Z,64
2017-03-04T12:14:12.427Z,60
2017-03-04T12:15:23.486Z,60
2017-03-04T12:16:34.251Z,64
2017-03-04T12:17:45.003Z,60
2017-03-04T12:18:54.971Z,60
2017-03-04T12:20:05.333Z,60
2017-03-04T12:21:16.367Z,56
2017-03-04T12:22:27.143Z,56
2017-03-04T12:23:37.496Z,56
2017-03-04T12:24:48.243Z,56
2017-03-04T12:25:59.013Z,56
2017-03-04T12:27:10.037Z,56
2017-03-04T12:28:20.421Z,60
2017-03-04T12:29:30.773Z,56
2017-03-04T12:30:41.173Z,56
2017-03-04T12:31:50.747Z,60
2017-03-04T12:33:01.823Z,56
2017-03-04T12:34:11.406Z,56
2017-03-04T12:35:21.786Z,52
2017-03-04T12:36:32.174Z,52
2017-03-04T12:37:42.142Z,52
2017-03-04T12:38:53.206Z,52
2017-03-04T12:40:03.582Z,52
2017-03-04T12:41:13.573Z,56
2017-03-04T12:42:24.328Z,52
2017-03-04T12:43:35.089Z,56
2017-03-04T12:44:46.146Z,52
2017-03-04T12:45:56.901Z,52
2017-03-04T12:47:07.260Z,52
2017-03-04T12:48:18.033Z,52
2017-03-04T12:49:28.383Z,52
2017-03-04T12:50:39.365Z,52
2017-03-04T12:51:50.126Z,52
2017-03-04T12:53:00.498Z,52
2017-03-04T12:54:11.284Z,52
2017-03-04T12:55:22.062Z,48
2017-03-04T12:56:33.131Z,52
2017-03-04T12:57:43.880Z,48
2017-03-04T12:58:53.835Z,52
2017-03-04T13:00:04.613Z,48
2017-03-04T13:01:15.393Z,48
2017-03-04T13:02:26.001Z,52
2017-03-04T13:03:36.760Z,52
2017-03-04T13:04:46.744Z,48
2017-03-04T13:05:56.817Z,48
2017-03-04T13:07:06.389Z,48
2017-03-04T13:08:17.461Z,48
2017-03-04T13:09:28.216Z,48
2017-03-04T13:10:38.978Z,48
2017-03-04T13:11:49.761Z,48
2017-03-04T13:13:00.526Z,48
2017-03-04T13:14:10.763Z,52
2017-03-04T13:15:21.138Z,48
2017-03-04T13:16:31.505Z,48
2017-03-04T13:17:42.299Z,48
2017-03-04T13:18:52.261Z,48
2017-03-04T13:20:03.263Z,48
2017-03-04T13:21:13.611Z,44
2017-03-04T13:22:24.379Z,44
2017-03-04T13:23:34.746Z,44
2017-03-04T13:24:45.557Z,48
2017-03-04T13:25:56.168Z,44
2017-03-04T13:27:06.914Z,48
2017-03-04T13:28:17.724Z,44
2017-03-04T13:29:27.725Z,48
2017-03-04T13:30:38.535Z,44
2017-03-04T13:31:49.202Z,48
2017-03-04T13:32:59.980Z,48
2017-03-04T13:34:10.357Z,48
2017-03-04T13:35:20.353Z,48
2017-03-04T13:36:31.112Z,44
2017-03-04T13:37:42.168Z,48
2017-03-04T13:38:52.517Z,44
2017-03-04T13:40:02.517Z,48
2017-03-04T13:41:13.266Z,44
2017-03-04T13:42:23.239Z,44
2017-03-04T13:43:34.296Z,44
2017-03-04T13:44:44.651Z,44
2017-03-04T13:45:55.019Z,48
2017-03-04T13:47:05.381Z,44
2017-03-04T13:48:15.732Z,44
2017-03-04T13:49:26.343Z,44
2017-03-04T13:50:37.117Z,44
2017-03-04T13:51:47.108Z,44
2017-03-04T13:52:57.499Z,44
2017-03-04T13:54:07.461Z,44
2017-03-04T13:55:18.116Z,44
2017-03-04T13:56:28.871Z,40
2017-03-04T13:57:39.618Z,44
2017-03-04T13:58:49.592Z,40
2017-03-04T13:59:59.557Z,40
2017-03-04T14:01:10.171Z,40
2017-03-04T14:02:20.136Z,40
2017-03-04T14:03:30.092Z,36
2017-03-04T14:04:40.064Z,36
2017-03-04T14:05:50.051Z,36
2017-03-04T14:07:00.516Z,36
2017-03-04T14:08:11.249Z,36
2017-03-04T14:09:22.051Z,36
2017-03-04T14:10:32.011Z,36
2017-03-04T14:11:42.379Z,36
2017-03-04T14:12:52.631Z,36
2017-03-04T14:14:03.390Z,36
2017-03-04T14:15:14.150Z,32
2017-03-04T14:16:24.517Z,32
2017-03-04T14:17:35.286Z,32
2017-03-04T14:18:45.937Z,36
2017-03-04T14:19:56.705Z,36
2017-03-04T14:21:07.068Z,36
2017-03-04T14:22:17.454Z,36
2017-03-04T14:23:28.215Z,36
2017-03-04T14:24:38.882Z,32
2017-03-04T14:25:49.227Z,36
2017-03-04T14:26:59.563Z,36
2017-03-04T14:28:09.542Z,36
2017-03-04T14:29:19.490Z,36
2017-03-04T14:30:30.491Z,36
2017-03-04T14:31:40.456Z,36
2017-03-04T14:32:50.029Z,32
2017-03-04T14:33:59.993Z,32
2017-03-04T14:35:10.354Z,36
2017-03-04T14:36:20.174Z,36
2017-03-04T14:37:31.003Z,32
2017-03-04T14:38:41.364Z,32
2017-03-04T14:39:51.330Z,36
2017-03-04T14:41:01.317Z,32
2017-03-04T14:42:11.528Z,32
2017-03-04T14:43:22.274Z,32
2017-03-04T14:44:32.619Z,28
2017-03-04T14:45:42.607Z,32
2017-03-04T14:46:53.362Z,28
2017-03-04T14:48:03.649Z,28
2017-03-04T14:49:14.015Z,32
2017-03-04T14:50:24.427Z,28
2017-03-04T14:51:34.395Z,28
2017-03-04T14:52:44.735Z,28
2017-03-04T14:53:54.552Z,24
2017-03-04T14:55:05.326Z,28
2017-03-04T14:56:15.682Z,28
2017-03-04T14:57:26.020Z,24
2017-03-04T14:58:36.386Z,28
2017-03-04T14:59:47.535Z,28
2017-03-04T15:00:57.900Z,24
2017-03-04T15:02:07.847Z,24
2017-03-04T15:03:18.195Z,24
2017-03-04T15:04:28.939Z,24
2017-03-04T15:05:39.996Z,24
2017-03-04T15:06:50.334Z,20
2017-03-04T15:08:01.064Z,24
2017-03-04T15:09:11.804Z,24
2017-03-04T15:10:21.373Z,24
2017-03-04T15:11:31.175Z,24
2017-03-04T15:12:41.519Z,20
2017-03-04T15:13:51.470Z,20
2017-03-04T15:15:01.439Z,20
2017-03-04T15:16:12.203Z,20
2017-03-04T15:17:22.843Z,24
2017-03-04T15:18:33.587Z,20
2017-03-04T15:19:43.533Z,20
2017-03-04T15:20:53.477Z,20
2017-03-04T15:22:03.855Z,20
2017-03-04T15:23:14.060Z,20
2017-03-04T15:24:24.011Z,16
2017-03-04T15:25:33.956Z,20
2017-03-04T15:26:44.702Z,20
2017-03-04T15:27:55.047Z,20
2017-03-04T15:29:04.891Z,20
2017-03-04T15:30:15.625Z,16
2017-03-04T15:31:25.577Z,16
2017-03-04T15:32:35.901Z,16
2017-03-04T15:33:46.220Z,20
2017-03-04T15:34:57.259Z,16
2017-03-04T15:36:07.602Z,16
2017-03-04T15:37:17.561Z,16
2017-03-04T15:38:27.500Z,16
2017-03-04T15:39:38.251Z,16
2017-03-04T15:40:48.908Z,16
2017-03-04T15:41:59.273Z,16
2017-03-04T15:43:10.012Z,12
2017-03-04T15:44:20.364Z,12
2017-03-04T15:45:30.309Z,12
2017-03-04T15:46:40.894Z,16
2017-03-04T15:47:51.231Z,12
2017-03-04T15:49:00.795Z,12
2017-03-04T15:50:11.523Z,12
2017-03-04T15:51:21.462Z,12
2017-03-04T15:52:32.114Z,12
2017-03-04T15:53:42.846Z,12
2017-03-04T15:54:53.221Z,12
2017-03-04T15:56:04.000Z,8
2017-03-04T15:57:14.723Z,8
2017-03-04T15:58:24.587Z,12
2017-03-04T15:59:35.327Z,12
2017-03-04T16:00:45.661Z,8
2017-03-04T16:01:56.022Z,8
2017-03-04T16:03:06.385Z,8
2017-03-04T16:04:21.758Z,12
2017-03-04T16:05:32.114Z,8
2017-03-04T16:06:42.441Z,8
2017-03-04T16:07:52.766Z,8
2017-03-04T16:09:03.108Z,4
2017-03-04T16:10:13.324Z,4
2017-03-04T16:11:23.608Z,8
2017-03-04T16:12:33.539Z,8
2017-03-04T16:13:43.880Z,4
2017-03-04T16:14:53.856Z,4
2017-03-04T16:16:04.140Z,4
2017-03-04T16:17:13.688Z,4
2017-03-04T16:18:24.005Z,8
2017-03-04T16:19:33.946Z,4
2017-03-04T16:20:44.329Z,4
2017-03-04T16:21:54.620Z,4
2017-03-04T16:23:04.962Z,4
2017-03-04T16:24:14.913Z,4
2017-03-04T16:25:24.856Z,4
2017-03-04T16:26:34.399Z,4
2017-03-04T16:27:44.198Z,4
2017-03-04T16:28:54.114Z,4
2017-03-04T16:30:04.465Z,4
2017-03-04T16:31:14.434Z,0
2017-03-04T16:32:24.397Z,0
2017-03-04T16:33:34.637Z,0
2017-03-04T16:34:45.391Z,4
2017-03-04T16:35:55.745Z,4
2017-03-04T16:37:06.088Z,4
2017-03-04T16:38:16.563Z,0
2017-03-04T16:39:26.370Z,0
2017-03-04T16:40:35.903Z,0
2017-03-04T16:41:46.238Z,0
2017-03-04T16:42:56.598Z,0
2017-03-04T16:44:06.544Z,0
2017-03-04T16:45:16.784Z,0
2017-03-04T16:46:27.535Z,0
2017-03-04T16:47:37.491Z,0
2017-03-04T16:48:48.220Z,0
2017-03-04T16:49:58.209Z,0
2017-03-04T16:51:09.226Z,0
2017-03-04T16:52:19.571Z,0
2017-03-04T16:53:29.926Z,0
2017-03-04T16:54:39.857Z,0
2017-03-04T16:55:50.630Z,0
2017-03-04T16:57:01.202Z,0
2017-03-04T16:58:11.547Z,0
2017-03-04T16:59:21.894Z,0
2017-03-04T17:00:32.715Z,0